createdAt,value
2023-03-05T00:01:54.385Z,42.53
2023-03-05T00:04:21.560Z,42.74
2023-03-05T00:06:48.063Z,42.37
2023-03-05T00:09:14.763Z,42.17
2023-03-05T00:11:41.456Z,42.57
2023-03-05T00:14:08.238Z,42.56
2023-03-05T00:16:34.891Z,43.29
2023-03-05T00:19:01.687Z,42.78
2023-03-05T00:21:29.999Z,44.13
2023-03-05T00:23:57.850Z,43.69
2023-03-05T00:26:26.880Z,43.31
2023-03-05T00:28:55.882Z,43.13
2023-03-05T00:31:25.145Z,42.79
2023-03-05T00:33:53.315Z,42.30
2023-03-05T00:36:19.964Z,42.83
2023-03-05T00:38:46.698Z,42.14
2023-03-05T00:41:13.336Z,42.36
2023-03-05T00:43:39.869Z,43.11
2023-03-05T00:46:06.432Z,43.10
2023-03-05T00:48:32.988Z,42.67
2023-03-05T00:50:59.687Z,42.35
2023-03-05T00:53:26.371Z,42.94
2023-03-05T00:55:53.062Z,42.40
2023-03-05T00:58:19.727Z,42.68
2023-03-05T01:00:46.575Z,42.93
2023-03-05T01:03:13.111Z,42.61
2023-03-05T01:05:39.746Z,43.61
2023-03-05T01:08:06.403Z,42.67
2023-03-05T01:10:33.322Z,43.10
2023-03-05T01:13:00.075Z,42.37
2023-03-05T01:15:27.476Z,42.85
2023-03-05T01:17:54.173Z,42.38
2023-03-05T01:20:23.218Z,42.79
2023-03-05T01:22:50.332Z,42.48
2023-03-05T01:25:17.740Z,42.19
2023-03-05T01:27:45.027Z,42.48
2023-03-05T01:30:13.290Z,42.54
2023-03-05T01:32:40.338Z,42.63
2023-03-05T01:35:07.785Z,42.74
2023-03-05T01:37:34.587Z,42.47
2023-03-05T01:40:01.142Z,42.25
2023-03-05T01:42:28.027Z,42.55
2023-03-05T01:45:11.628Z,42.32
2023-03-05T01:47:38.716Z,42.35
2023-03-05T01:50:09.032Z,42.33
2023-03-05T01:52:39.723Z,42.20
2023-03-05T01:55:11.754Z,42.17
2023-03-05T01:57:42.332Z,42.73
2023-03-05T02:00:16.149Z,42.37
2023-03-05T02:02:44.164Z,42.43
2023-03-05T02:05:16.047Z,42.32
2023-03-05T02:07:43.293Z,42.39
2023-03-05T02:10:24.869Z,42.59
2023-03-05T02:12:54.620Z,42.33
2023-03-05T02:15:21.307Z,42.37
2023-03-05T02:17:47.888Z,42.05
2023-03-05T02:20:21.544Z,42.31
2023-03-05T02:22:48.235Z,42.33
2023-03-05T02:25:27.970Z,42.67
2023-03-05T02:28:03.621Z,43.00
2023-03-05T02:30:31.313Z,42.65
2023-03-05T02:32:58.454Z,42.91
2023-03-05T02:35:25.905Z,43.19
2023-03-05T02:37:52.506Z,42.75
2023-03-05T02:40:19.267Z,43.07
2023-03-05T02:42:46.631Z,42.87
2023-03-05T02:45:14.600Z,42.84
2023-03-05T02:47:41.661Z,42.57
2023-03-05T02:50:10.793Z,43.32
2023-03-05T02:52:38.354Z,42.73
2023-03-05T02:55:08.586Z,42.74
2023-03-05T02:57:35.119Z,42.80
2023-03-05T03:00:01.804Z,43.47
2023-03-05T03:02:28.491Z,43.13
2023-03-05T03:04:55.074Z,43.04
2023-03-05T03:07:21.569Z,42.94
2023-03-05T03:09:48.269Z,43.16
2023-03-05T03:12:15.111Z,42.73
2023-03-05T03:14:42.660Z,42.80
2023-03-05T03:17:20.141Z,42.84
2023-03-05T03:19:46.966Z,42.79
2023-03-05T03:22:15.361Z,42.58
2023-03-05T03:24:44.216Z,42.60
2023-03-05T03:27:10.893Z,43.02
2023-03-05T03:29:37.940Z,42.98
2023-03-05T03:32:04.811Z,43.02
2023-03-05T03:34:31.451Z,42.96
2023-03-05T03:36:57.993Z,42.59
2023-03-05T03:39:25.442Z,42.85
2023-03-05T03:41:53.547Z,42.64
2023-03-05T03:44:21.588Z,42.82
2023-03-05T03:46:49.690Z,43.23
2023-03-05T03:49:22.243Z,43.17
2023-03-05T03:51:50.662Z,43.30
2023-03-05T03:54:18.630Z,43.09
2023-03-05T03:56:45.663Z,42.93
2023-03-05T03:59:13.348Z,42.66
2023-03-05T04:01:40.169Z,43.05
2023-03-05T04:04:07.675Z,42.58
2023-03-05T04:06:34.753Z,42.77
2023-03-05T04:09:01.336Z,42.51
2023-03-05T04:11:27.865Z,43.05
2023-03-05T04:13:54.485Z,42.85
2023-03-05T04:16:21.269Z,42.63
2023-03-05T04:18:47.811Z,42.95
2023-03-05T04:21:14.392Z,42.73
2023-03-05T04:23:41.246Z,43.35
2023-03-05T04:26:07.841Z,43.29
2023-03-05T04:28:34.616Z,42.78
2023-03-05T04:31:01.255Z,43.18
2023-03-05T04:33:28.057Z,43.70
2023-03-05T04:35:54.715Z,43.26
2023-03-05T04:38:21.290Z,44.29
2023-03-05T04:40:48.316Z,43.56
2023-03-05T04:43:14.905Z,43.51
2023-03-05T04:45:43.047Z,43.73
2023-03-05T04:48:11.118Z,43.37
2023-03-05T04:50:38.190Z,43.53
2023-03-05T04:53:04.825Z,43.08
2023-03-05T04:55:31.385Z,43.16
2023-03-05T04:57:58.330Z,43.84
2023-03-05T05:00:25.227Z,44.12
2023-03-05T05:02:52.472Z,44.16
2023-03-05T05:05:21.972Z,44.66
2023-03-05T05:07:48.542Z,43.86
2023-03-05T05:10:15.992Z,43.78
2023-03-05T05:12:42.959Z,43.70
2023-03-05T05:15:10.136Z,44.17
2023-03-05T05:17:36.692Z,43.52
2023-03-05T05:20:06.753Z,42.91
2023-03-05T05:22:33.668Z,42.90
2023-03-05T05:25:00.381Z,43.23
2023-03-05T05:27:26.924Z,44.03
2023-03-05T05:29:53.496Z,43.59
2023-03-05T05:32:22.497Z,44.05
2023-03-05T05:34:53.442Z,43.76
2023-03-05T05:37:19.973Z,43.34
2023-03-05T05:39:50.114Z,43.47
2023-03-05T05:42:22.055Z,43.27
2023-03-05T05:44:49.180Z,43.23
2023-03-05T05:47:17.282Z,43.26
2023-03-05T05:49:43.847Z,43.13
2023-03-05T05:52:10.654Z,43.14
2023-03-05T05:54:37.298Z,42.87
2023-03-05T05:57:03.960Z,43.23
2023-03-05T05:59:30.529Z,43.28
2023-03-05T06:01:57.315Z,42.97
2023-03-05T06:04:23.864Z,43.70
2023-03-05T06:06:50.622Z,43.14
2023-03-05T06:09:17.618Z,42.97
2023-03-05T06:11:44.445Z,43.06
2023-03-05T06:14:12.654Z,43.28
2023-03-05T06:16:39.730Z,43.19
2023-03-05T06:19:06.468Z,43.42
2023-03-05T06:21:33.637Z,43.82
2023-03-05T06:24:00.647Z,43.61
2023-03-05T06:26:27.234Z,43.42
2023-03-05T06:28:54.261Z,43.26
2023-03-05T06:31:23.377Z,43.57
2023-03-05T06:33:50.396Z,43.45
2023-03-05T06:36:19.477Z,42.92
2023-03-05T06:38:48.386Z,42.97
2023-03-05T06:41:18.300Z,42.67
2023-03-05T06:43:46.670Z,42.83
2023-03-05T06:46:22.588Z,43.21
2023-03-05T06:48:49.728Z,42.95
2023-03-05T06:51:18.320Z,42.97
2023-03-05T06:53:46.771Z,42.68
2023-03-05T06:56:16.629Z,42.78
2023-03-05T06:58:45.731Z,43.63
2023-03-05T07:01:13.529Z,43.68
2023-03-05T07:03:40.868Z,43.39
2023-03-05T07:06:13.734Z,43.31
2023-03-05T07:08:40.264Z,43.49
2023-03-05T07:11:18.047Z,43.08
2023-03-05T07:13:47.693Z,42.82
2023-03-05T07:16:17.256Z,42.93
2023-03-05T07:18:44.554Z,42.75
2023-03-05T07:21:16.157Z,42.68
2023-03-05T07:23:42.958Z,42.57
2023-03-05T07:26:11.109Z,42.41
2023-03-05T07:28:37.687Z,42.39
2023-03-05T07:31:07.319Z,42.12
2023-03-05T07:33:35.227Z,42.10
2023-03-05T07:36:01.823Z,41.47
2023-03-05T07:38:28.431Z,41.81
2023-03-05T07:40:55.212Z,42.14
2023-03-05T07:43:21.764Z,42.03
2023-03-05T07:45:50.219Z,41.96
2023-03-05T07:48:20.818Z,42.29
2023-03-05T07:50:48.369Z,41.65
2023-03-05T07:53:15.488Z,41.91
2023-03-05T07:55:43.976Z,41.74
2023-03-05T07:58:11.501Z,41.97
2023-03-05T08:00:38.798Z,41.84
2023-03-05T08:03:05.436Z,41.97
2023-03-05T08:05:32.065Z,42.06
2023-03-05T08:07:58.897Z,42.38
2023-03-05T08:10:25.467Z,43.60
2023-03-05T08:12:52.116Z,43.73
2023-03-05T08:15:18.756Z,42.97
2023-03-05T08:17:45.317Z,42.75
2023-03-05T08:20:12.445Z,42.89
2023-03-05T08:22:39.000Z,42.42
2023-03-05T08:25:06.593Z,42.30
2023-03-05T08:27:33.297Z,41.98
2023-03-05T08:30:02.541Z,41.75
2023-03-05T08:32:29.241Z,43.00
2023-03-05T08:34:58.539Z,42.21
2023-03-05T08:37:25.293Z,43.04
2023-03-05T08:39:51.818Z,42.05
2023-03-05T08:42:18.348Z,42.18
2023-03-05T08:44:44.889Z,42.09
2023-03-05T08:47:11.414Z,42.62
2023-03-05T08:49:37.974Z,42.47
2023-03-05T08:52:04.840Z,42.20
2023-03-05T08:54:31.396Z,41.75
2023-03-05T08:56:57.940Z,41.30
2023-03-05T08:59:24.551Z,41.76
2023-03-05T09:01:51.148Z,41.48
2023-03-05T09:04:17.718Z,41.13
2023-03-05T09:06:44.451Z,40.71
2023-03-05T09:09:11.091Z,40.80
2023-03-05T09:11:37.728Z,40.29
2023-03-05T09:14:04.976Z,41.00
2023-03-05T09:16:31.945Z,40.71
2023-03-05T09:18:59.790Z,41.44
2023-03-05T09:21:26.423Z,41.51
2023-03-05T09:23:53.030Z,42.27
2023-03-05T09:26:20.116Z,41.36
2023-03-05T09:28:47.431Z,41.37
2023-03-05T09:31:14.544Z,41.00
2023-03-05T09:33:41.710Z,40.58
2023-03-05T09:36:19.624Z,40.74
2023-03-05T09:38:46.317Z,40.71
2023-03-05T09:41:26.652Z,41.41
2023-03-05T09:44:12.014Z,41.63
2023-03-05T09:47:07.819Z,41.29
2023-03-05T09:49:56.157Z,41.18
2023-03-05T09:52:39.037Z,41.29
2023-03-05T09:55:13.057Z,41.06
2023-03-05T09:57:44.499Z,40.98
2023-03-05T10:00:29.945Z,41.34
2023-03-05T10:03:02.073Z,41.87
2023-03-05T10:05:46.858Z,41.74
2023-03-05T10:08:16.732Z,41.82
2023-03-05T10:11:06.767Z,41.95
2023-03-05T10:13:41.318Z,42.08
2023-03-05T10:16:34.097Z,42.00
2023-03-05T10:19:04.592Z,41.95
2023-03-05T10:21:40.270Z,41.59
2023-03-05T10:24:40.906Z,41.11
2023-03-05T10:27:46.609Z,41.66
2023-03-05T10:30:43.675Z,41.79
2023-03-05T10:33:16.061Z,42.41
2023-03-05T10:35:57.712Z,42.45
2023-03-05T10:38:36.272Z,41.97
2023-03-05T10:41:16.815Z,42.31
2023-03-05T10:44:04.875Z,41.72
2023-03-05T10:46:35.887Z,42.32
2023-03-05T10:49:17.200Z,42.06
2023-03-05T10:52:03.465Z,42.04
2023-03-05T10:54:32.822Z,42.01
2023-03-05T10:57:16.194Z,41.37
2023-03-05T11:00:06.976Z,41.08
2023-03-05T11:02:34.310Z,41.32
2023-03-05T11:05:01.111Z,42.33
2023-03-05T11:07:36.089Z,41.19
2023-03-05T11:10:06.853Z,40.75
2023-03-05T11:12:38.096Z,41.07
2023-03-05T11:15:13.744Z,40.68
2023-03-05T11:18:03.135Z,40.23
2023-03-05T11:20:35.878Z,40.96
2023-03-05T11:23:26.258Z,40.42
2023-03-05T11:26:04.747Z,40.46
2023-03-05T11:28:41.216Z,40.19
2023-03-05T11:31:21.199Z,40.48
2023-03-05T11:34:20.952Z,40.65
2023-03-05T11:36:53.395Z,41.54
2023-03-05T11:39:22.591Z,40.81
2023-03-05T11:41:58.280Z,41.46
2023-03-05T11:44:34.170Z,40.89
2023-03-05T11:47:23.515Z,40.19
2023-03-05T11:49:57.593Z,40.95
2023-03-05T11:52:33.385Z,40.23
2023-03-05T11:55:02.820Z,39.62
2023-03-05T11:57:39.256Z,38.22
2023-03-05T12:00:13.393Z,37.45
2023-03-05T12:02:40.025Z,37.44
2023-03-05T12:05:07.724Z,37.54
2023-03-05T12:07:45.144Z,37.57
2023-03-05T12:10:17.569Z,36.56
2023-03-05T12:12:58.176Z,37.32
2023-03-05T12:16:00.118Z,37.20
2023-03-05T12:18:45.339Z,36.88
2023-03-05T12:21:32.769Z,38.31
2023-03-05T12:24:04.829Z,37.80
2023-03-05T12:26:53.104Z,37.60
2023-03-05T12:29:39.880Z,37.30
2023-03-05T12:32:31.324Z,37.82
2023-03-05T12:34:59.970Z,36.71
2023-03-05T12:37:27.134Z,37.05
2023-03-05T12:40:08.974Z,36.57
2023-03-05T12:42:45.803Z,36.83
2023-03-05T12:45:12.618Z,37.67
2023-03-05T12:47:43.941Z,36.90
2023-03-05T12:50:29.037Z,36.11
2023-03-05T12:53:07.399Z,36.37
2023-03-05T12:55:45.262Z,36.63
2023-03-05T12:58:19.839Z,35.62
2023-03-05T13:00:50.254Z,35.77
2023-03-05T13:03:24.997Z,33.74
2023-03-05T13:05:56.670Z,34.37
2023-03-05T13:08:32.018Z,34.35
2023-03-05T13:11:00.218Z,34.47
2023-03-05T13:13:29.657Z,34.14
2023-03-05T13:15:57.133Z,35.04
2023-03-05T13:18:27.360Z,35.07
2023-03-05T13:21:21.366Z,33.73
2023-03-05T13:23:58.928Z,34.15
2023-03-05T13:26:35.826Z,33.30
2023-03-05T13:29:14.887Z,33.84
2023-03-05T13:31:45.930Z,33.49
2023-03-05T13:34:23.193Z,33.79
2023-03-05T13:37:23.978Z,32.84
2023-03-05T13:40:06.983Z,33.12
2023-03-05T13:42:36.177Z,34.03
2023-03-05T13:45:07.281Z,33.48
2023-03-05T13:47:35.571Z,34.06
2023-03-05T13:50:08.237Z,33.41
2023-03-05T13:52:39.019Z,33.42
2023-03-05T13:55:13.569Z,33.99
2023-03-05T13:57:41.353Z,33.98
2023-03-05T14:00:42.100Z,34.07
2023-03-05T14:03:15.936Z,34.32
2023-03-05T14:05:45.911Z,34.44
2023-03-05T14:08:25.641Z,34.79
2023-03-05T14:10:57.179Z,34.58
2023-03-05T14:13:27.649Z,33.86
2023-03-05T14:16:05.946Z,34.41
2023-03-05T14:18:32.669Z,34.76
2023-03-05T14:21:08.811Z,35.29
2023-03-05T14:23:42.873Z,35.39
2023-03-05T14:26:29.006Z,35.15
2023-03-05T14:29:00.356Z,35.26
2023-03-05T14:31:29.046Z,35.49
2023-03-05T14:34:02.061Z,35.22
2023-03-05T14:36:30.328Z,35.69
2023-03-05T14:38:57.170Z,35.31
2023-03-05T14:41:40.982Z,34.75
2023-03-05T14:44:26.560Z,35.12
2023-03-05T14:46:53.168Z,34.93
2023-03-05T14:49:19.901Z,35.66
2023-03-05T14:51:47.044Z,35.46
2023-03-05T14:54:23.755Z,35.38
2023-03-05T14:56:50.567Z,35.12
2023-03-05T14:59:18.336Z,35.38
2023-03-05T15:01:45.063Z,35.16
2023-03-05T15:04:11.858Z,35.13
2023-03-05T15:06:40.719Z,35.08
2023-03-05T15:09:07.879Z,35.01
2023-03-05T15:11:34.492Z,34.99
2023-03-05T15:14:01.130Z,35.06
2023-03-05T15:16:27.709Z,35.43
2023-03-05T15:18:54.254Z,35.55
2023-03-05T15:21:20.850Z,35.44
2023-03-05T15:23:47.440Z,35.21
2023-03-05T15:26:15.074Z,36.40
2023-03-05T15:28:43.524Z,36.42
2023-03-05T15:31:10.985Z,35.71
2023-03-05T15:33:37.666Z,35.98
2023-03-05T15:36:04.573Z,36.77
2023-03-05T15:38:31.158Z,36.46
2023-03-05T15:41:00.545Z,36.51
2023-03-05T15:43:28.218Z,36.53
2023-03-05T15:45:54.875Z,36.80
2023-03-05T15:48:21.509Z,37.31
2023-03-05T15:50:48.114Z,36.98
2023-03-05T15:53:18.176Z,37.08
2023-03-05T15:55:45.800Z,36.98
2023-03-05T15:58:17.200Z,37.03
2023-03-05T16:00:44.361Z,37.13
2023-03-05T16:03:11.216Z,37.36
2023-03-05T16:05:38.382Z,37.68
2023-03-05T16:08:06.152Z,38.17
2023-03-05T16:10:33.369Z,37.48
2023-03-05T16:13:06.204Z,37.48
2023-03-05T16:15:35.022Z,37.64
2023-03-05T16:18:06.082Z,38.25
2023-03-05T16:20:32.716Z,37.83
2023-03-05T16:22:59.236Z,37.60
2023-03-05T16:25:26.708Z,37.54
2023-03-05T16:27:53.357Z,37.62
2023-03-05T16:30:20.182Z,37.63
2023-03-05T16:32:46.837Z,37.63
2023-03-05T16:35:13.804Z,37.55
2023-03-05T16:37:41.451Z,37.21
2023-03-05T16:40:10.319Z,37.09
2023-03-05T16:42:37.257Z,37.25
2023-03-05T16:45:04.847Z,36.98
2023-03-05T16:47:31.811Z,36.84
2023-03-05T16:49:59.331Z,36.21
2023-03-05T16:52:25.857Z,36.40
2023-03-05T16:54:52.750Z,36.19
2023-03-05T16:57:19.515Z,35.72
2023-03-05T16:59:46.092Z,35.79
2023-03-05T17:02:15.037Z,35.15
2023-03-05T17:04:42.505Z,35.31
2023-03-05T17:07:09.668Z,35.30
2023-03-05T17:09:36.999Z,35.26
2023-03-05T17:12:03.735Z,35.48
2023-03-05T17:14:30.270Z,35.85
2023-03-05T17:16:56.825Z,35.75
2023-03-05T17:19:23.388Z,35.64
2023-03-05T17:21:52.108Z,35.19
2023-03-05T17:24:20.816Z,35.30
2023-03-05T17:26:49.512Z,35.67
2023-03-05T17:29:16.192Z,35.81
2023-03-05T17:31:43.214Z,35.30
2023-03-05T17:34:10.157Z,35.47
2023-03-05T17:36:36.821Z,35.40
2023-03-05T17:39:04.463Z,35.41
2023-03-05T17:41:30.984Z,35.40
2023-03-05T17:43:57.580Z,35.44
2023-03-05T17:46:24.124Z,35.40
2023-03-05T17:48:50.690Z,35.21
2023-03-05T17:51:17.343Z,35.55
2023-03-05T17:53:44.344Z,35.41
2023-03-05T17:56:12.296Z,35.55
2023-03-05T17:58:40.143Z,35.78
2023-03-05T18:01:07.436Z,36.15
2023-03-05T18:03:34.513Z,36.10
2023-03-05T18:06:01.173Z,35.86
2023-03-05T18:08:29.293Z,35.96
2023-03-05T18:10:56.011Z,35.73
2023-03-05T18:13:22.675Z,35.48
2023-03-05T18:15:49.243Z,35.36
2023-03-05T18:18:17.486Z,35.47
2023-03-05T18:20:44.828Z,35.69
2023-03-05T18:23:11.769Z,36.09
2023-03-05T18:25:38.720Z,36.16
2023-03-05T18:28:13.700Z,35.68
2023-03-05T18:30:43.260Z,35.37
2023-03-05T18:33:24.185Z,36.47
2023-03-05T18:35:52.395Z,36.32
2023-03-05T18:38:24.054Z,36.24
2023-03-05T18:40:53.708Z,36.52
2023-03-05T18:43:22.070Z,36.58
2023-03-05T18:45:54.694Z,35.93
2023-03-05T18:48:22.473Z,36.31
2023-03-05T18:50:50.193Z,36.69
2023-03-05T18:53:17.077Z,36.23
2023-03-05T18:55:44.790Z,36.65
2023-03-05T18:58:15.351Z,36.69
2023-03-05T19:00:44.721Z,37.02
2023-03-05T19:03:11.666Z,37.00
2023-03-05T19:05:38.768Z,37.43
2023-03-05T19:08:05.889Z,37.69
2023-03-05T19:10:33.186Z,37.50
2023-03-05T19:13:39.874Z,37.30
2023-03-05T19:16:26.520Z,37.71
2023-03-05T19:19:20.192Z,37.54
2023-03-05T19:21:56.942Z,37.27
2023-03-05T19:24:25.108Z,37.28
2023-03-05T19:26:55.505Z,37.39
2023-03-05T19:29:27.067Z,37.52
2023-03-05T19:31:54.366Z,37.53
2023-03-05T19:34:21.581Z,37.78
2023-03-05T19:36:48.161Z,37.82
2023-03-05T19:39:15.503Z,38.13
2023-03-05T19:41:42.210Z,38.53
2023-03-05T19:44:08.801Z,38.05
2023-03-05T19:46:35.392Z,37.91
2023-03-05T19:49:02.016Z,38.35
2023-03-05T19:51:29.155Z,37.98
2023-03-05T19:53:55.789Z,37.97
2023-03-05T19:56:22.537Z,38.21
2023-03-05T19:58:49.272Z,38.14
2023-03-05T20:01:25.814Z,38.07
2023-03-05T20:03:55.081Z,37.86
2023-03-05T20:06:23.044Z,37.24
2023-03-05T20:08:50.088Z,37.21
2023-03-05T20:11:17.811Z,37.27
2023-03-05T20:13:44.838Z,37.41
2023-03-05T20:16:19.447Z,37.27
2023-03-05T20:18:46.779Z,37.65
2023-03-05T20:21:21.047Z,38.11
2023-03-05T20:23:47.718Z,38.24
2023-03-05T20:26:14.248Z,38.02
2023-03-05T20:28:40.799Z,38.31
2023-03-05T20:31:07.382Z,38.14
2023-03-05T20:33:34.015Z,37.94
2023-03-05T20:36:01.256Z,38.10
2023-03-05T20:38:30.265Z,38.46
2023-03-05T20:41:06.005Z,38.28
2023-03-05T20:43:35.762Z,38.40
2023-03-05T20:46:03.441Z,38.33
2023-03-05T20:48:32.580Z,38.19
2023-03-05T20:51:10.806Z,38.36
2023-03-05T20:53:37.344Z,38.09
2023-03-05T20:56:03.993Z,38.25
2023-03-05T20:58:30.505Z,38.49
2023-03-05T21:00:57.148Z,38.28
2023-03-05T21:03:25.565Z,38.80
2023-03-05T21:05:55.635Z,38.85
2023-03-05T21:08:22.554Z,38.80
2023-03-05T21:10:49.491Z,38.89
2023-03-05T21:13:16.215Z,38.73
2023-03-05T21:15:42.773Z,38.86
2023-03-05T21:18:09.320Z,38.90
2023-03-05T21:20:36.029Z,38.77
2023-03-05T21:23:03.782Z,38.97
2023-03-05T21:25:32.417Z,39.11
2023-03-05T21:28:11.572Z,39.34
2023-03-05T21:30:44.811Z,38.43
2023-03-05T21:33:14.119Z,38.92
2023-03-05T21:35:41.301Z,38.78
2023-03-05T21:38:08.899Z,38.73
2023-03-05T21:40:43.475Z,38.82
2023-03-05T21:43:14.016Z,39.02
2023-03-05T21:45:41.097Z,38.77
2023-03-05T21:48:08.457Z,38.77
2023-03-05T21:50:38.728Z,38.48
2023-03-05T21:53:05.447Z,38.06
2023-03-05T21:56:07.410Z,38.04
2023-03-05T21:58:36.402Z,37.99
2023-03-05T22:01:03.204Z,37.25
2023-03-05T22:03:30.318Z,37.36
2023-03-05T22:05:57.133Z,37.68
2023-03-05T22:08:24.391Z,38.03
2023-03-05T22:10:51.596Z,38.64
2023-03-05T22:13:19.976Z,38.90
2023-03-05T22:15:52.713Z,39.05
2023-03-05T22:18:23.343Z,39.36
2023-03-05T22:20:50.652Z,38.93
2023-03-05T22:23:18.432Z,39.26
2023-03-05T22:25:45.390Z,39.25
2023-03-05T22:28:13.098Z,39.40
2023-03-05T22:30:44.151Z,39.71
2023-03-05T22:33:11.140Z,39.34
2023-03-05T22:35:39.826Z,39.48
2023-03-05T22:38:07.723Z,39.21
2023-03-05T22:40:34.668Z,39.51
2023-03-05T22:43:01.180Z,39.52
2023-03-05T22:45:28.565Z,39.40
2023-03-05T22:47:55.143Z,39.81
2023-03-05T22:50:22.008Z,39.69
2023-03-05T22:52:48.530Z,39.84
2023-03-05T22:55:16.914Z,39.99
2023-03-05T22:57:43.940Z,39.50
2023-03-05T23:00:21.426Z,39.29
2023-03-05T23:02:48.046Z,39.54
2023-03-05T23:05:14.815Z,39.84
2023-03-05T23:07:42.785Z,40.11
2023-03-05T23:10:16.302Z,40.22
2023-03-05T23:12:46.304Z,39.99
2023-03-05T23:15:16.689Z,40.20
2023-03-05T23:17:43.394Z,40.08
2023-03-05T23:20:11.553Z,40.12
2023-03-05T23:22:39.926Z,39.80
2023-03-05T23:25:07.296Z,39.43
2023-03-05T23:27:34.224Z,39.71
2023-03-05T23:30:22.084Z,40.56
2023-03-05T23:32:56.363Z,40.15
2023-03-05T23:35:32.197Z,40.42
2023-03-05T23:38:00.599Z,39.90
2023-03-05T23:40:30.139Z,39.93
2023-03-05T23:42:56.844Z,40.53
2023-03-05T23:45:24.194Z,40.47
2023-03-05T23:47:51.549Z,40.26
2023-03-05T23:50:33.575Z,40.42
2023-03-05T23:53:02.160Z,40.15
2023-03-05T23:55:43.795Z,40.68
2023-03-05T23:58:11.193Z,40.65
